Time;durP1;ratioP1;P1;durP2;ratioP2;P2;SDS_P1;SDS_P2;PMS_P1;PMS_P2;Temp;Humidity;BMP_temperature;BMP_pressure;BME280_temperature;BME280_humidity;BME280_pressure;Samples;Min_cycle;Max_cycle;Signal;HPM_P1;HPM_P2
2022/12/12 00:01:13;;;;;;;55.83;23.90;;;1.00;99.90;;;;;;5071463;28;20448;-58
2022/12/12 00:03:40;;;;;;;45.83;22.17;;;1.00;99.90;;;;;;5071991;28;20530;-58
2022/12/12 00:06:08;;;;;;;49.60;20.37;;;0.90;99.90;;;;;;5071520;28;20517;-58
2022/12/12 00:08:36;;;;;;;43.23;22.03;;;0.90;99.90;;;;;;5062850;28;20446;-58
2022/12/12 00:11:03;;;;;;;47.53;22.87;;;0.90;99.90;;;;;;5051427;28;20459;-58
2022/12/12 00:13:30;;;;;;;44.17;21.83;;;0.80;99.90;;;;;;5051099;28;21045;-58
2022/12/12 00:15:57;;;;;;;48.53;21.40;;;0.80;99.90;;;;;;5051110;28;20935;-59
2022/12/12 00:18:24;;;;;;;43.47;22.07;;;0.90;99.90;;;;;;5051189;28;20448;-58
2022/12/12 00:20:52;;;;;;;45.00;20.37;;;0.90;99.90;;;;;;5051276;28;21049;-57
2022/12/12 00:23:19;;;;;;;51.07;22.07;;;1.00;99.90;;;;;;5051158;28;20994;-57
2022/12/12 00:25:53;;;;;;;46.13;21.53;;;0.90;99.90;;;;;;5051369;28;20885;-56
2022/12/12 00:28:20;;;;;;;43.37;20.70;;;0.80;99.90;;;;;;5051341;28;20455;-56
2022/12/12 00:30:47;;;;;;;45.40;21.47;;;0.70;99.90;;;;;;5051393;28;20510;-58
2022/12/12 00:33:13;;;;;;;48.77;23.03;;;0.70;99.90;;;;;;5050873;28;20996;-58
2022/12/12 00:35:40;;;;;;;45.17;21.10;;;0.70;99.90;;;;;;5051180;28;20506;-55
2022/12/12 00:38:07;;;;;;;45.77;21.67;;;0.80;99.90;;;;;;5058912;28;20869;-58
2022/12/12 00:40:35;;;;;;;48.97;22.10;;;0.90;99.90;;;;;;5067560;28;20496;-58
2022/12/12 00:43:02;;;;;;;45.90;21.30;;;0.90;99.90;;;;;;5071177;28;20496;-58
2022/12/12 00:45:29;;;;;;;48.27;21.30;;;0.90;99.90;;;;;;5071094;28;20451;-58
2022/12/12 00:47:55;;;;;;;49.50;21.63;;;0.90;99.90;;;;;;5073102;28;20554;-58
2022/12/12 00:50:22;;;;;;;43.80;19.93;;;0.90;99.90;;;;;;5074384;28;20450;-58
2022/12/12 00:52:49;;;;;;;46.67;21.77;;;0.90;99.90;;;;;;5074403;28;20487;-58
2022/12/12 00:55:15;;;;;;;50.97;22.57;;;0.90;99.90;;;;;;5074345;28;20447;-58
2022/12/12 00:57:44;;;;;;;51.37;20.60;;;0.90;99.90;;;;;;5074229;28;20888;-58
2022/12/12 01:00:14;;;;;;;46.60;21.77;;;0.70;99.90;;;;;;5074545;28;20447;-58
2022/12/12 01:02:40;;;;;;;45.77;20.57;;;0.50;99.90;;;;;;5073918;28;20450;-56
2022/12/12 01:05:08;;;;;;;45.53;21.27;;;0.60;99.90;;;;;;5074200;28;20454;-57
2022/12/12 01:07:34;;;;;;;45.77;20.60;;;0.70;99.90;;;;;;5065482;28;20464;-58
2022/12/12 01:10:01;;;;;;;39.77;19.50;;;0.60;99.90;;;;;;5062196;28;20458;-58
2022/12/12 01:12:28;;;;;;;41.53;20.33;;;0.50;99.90;;;;;;5054131;28;20490;-58
2022/12/12 01:14:56;;;;;;;45.93;23.00;;;0.60;99.90;;;;;;5053996;28;20854;-58
2022/12/12 01:17:23;;;;;;;50.47;20.97;;;0.70;99.90;;;;;;5053721;28;20870;-58
2022/12/12 01:19:49;;;;;;;48.47;22.97;;;0.80;99.90;;;;;;5053714;28;20746;-56
2022/12/12 01:22:16;;;;;;;44.27;21.67;;;0.80;99.90;;;;;;5053663;28;20459;-57
2022/12/12 01:24:43;;;;;;;44.73;20.43;;;0.90;99.90;;;;;;5053633;28;20452;-59
2022/12/12 01:27:09;;;;;;;43.77;19.57;;;0.90;99.90;;;;;;5061919;28;20507;-58
2022/12/12 01:29:36;;;;;;;41.80;19.73;;;1.00;99.90;;;;;;5062044;28;20444;-58
2022/12/12 01:32:05;;;;;;;41.87;20.80;;;1.10;99.90;;;;;;5069578;28;20453;-58
2022/12/12 01:34:32;;;;;;;42.87;20.10;;;1.10;99.90;;;;;;5061828;28;20518;-58
2022/12/12 01:36:58;;;;;;;51.13;21.13;;;1.10;99.90;;;;;;5065201;28;20467;-58
2022/12/12 01:39:25;;;;;;;42.77;20.67;;;1.10;99.90;;;;;;5066525;28;20444;-58
2022/12/12 01:41:51;;;;;;;48.60;21.43;;;1.10;99.90;;;;;;5053753;28;20572;-58
2022/12/12 01:44:37;;;;;;;42.43;21.57;;;1.10;99.90;;;;;;5053416;28;20455;-56
2022/12/12 01:47:05;;;;;;;45.07;20.60;;;1.10;99.90;;;;;;5053492;28;20888;-54
2022/12/12 01:49:33;;;;;;;39.20;19.77;;;1.00;99.90;;;;;;5053440;28;21008;-54
2022/12/12 01:52:04;;;;;;;42.23;21.57;;;1.00;99.90;;;;;;5053370;28;20448;-55
2022/12/12 01:54:34;;;;;;;41.73;20.70;;;1.00;99.90;;;;;;5053537;28;20446;-57
2022/12/12 01:57:04;;;;;;;42.73;20.60;;;1.00;99.90;;;;;;5053311;28;21032;-59
2022/12/12 01:59:33;;;;;;;44.53;21.63;;;1.00;99.90;;;;;;5052959;28;20448;-56
2022/12/12 02:02:00;;;;;;;40.13;19.30;;;1.00;99.90;;;;;;5053049;28;20459;-58
2022/12/12 02:04:28;;;;;;;40.43;20.13;;;0.90;99.90;;;;;;5053199;28;20439;-56
2022/12/12 02:06:56;;;;;;;44.03;21.30;;;0.90;99.90;;;;;;5055415;28;20455;-55
2022/12/12 02:09:25;;;;;;;40.20;19.87;;;1.00;99.90;;;;;;5064845;28;20493;-56
2022/12/12 02:11:54;;;;;;;44.67;20.17;;;1.00;99.90;;;;;;5073049;28;20446;-57
2022/12/12 02:14:25;;;;;;;41.83;19.03;;;1.00;99.90;;;;;;5072707;28;20544;-57
2022/12/12 02:17:10;;;;;;;40.10;19.90;;;0.90;99.90;;;;;;5072840;28;20530;-58
2022/12/12 02:20:22;;;;;;;44.07;19.60;;;0.80;99.90;;;;;;5072845;28;20458;-58
2022/12/12 02:23:27;;;;;;;47.10;19.27;;;0.60;99.90;;;;;;5072512;28;20465;-57
2022/12/12 02:26:42;;;;;;;38.87;17.67;;;0.40;99.90;;;;;;5072537;28;20451;-58
2022/12/12 02:29:54;;;;;;;45.07;18.47;;;0.40;99.90;;;;;;4991431;28;20515;-58
2022/12/12 02:32:27;;;;;;;37.53;18.03;;;0.40;99.90;;;;;;5048357;28;20526;-57
2022/12/12 02:35:03;;;;;;;40.87;18.37;;;0.30;99.90;;;;;;5072789;28;20953;-58
2022/12/12 02:37:37;;;;;;;38.77;18.63;;;0.30;99.90;;;;;;5064717;28;20497;-56
2022/12/12 02:40:14;;;;;;;37.47;19.77;;;0.30;99.90;;;;;;5064846;28;20509;-58
2022/12/12 02:42:45;;;;;;;40.83;19.80;;;0.40;99.90;;;;;;5072558;28;20691;-57
2022/12/12 02:45:18;;;;;;;37.93;18.70;;;0.40;99.90;;;;;;5072330;28;20446;-58
2022/12/12 02:47:51;;;;;;;40.00;20.23;;;0.50;99.90;;;;;;5072062;28;20472;-58
2022/12/12 02:50:21;;;;;;;37.10;17.90;;;0.50;99.90;;;;;;5072331;28;20443;-56
2022/12/12 02:52:49;;;;;;;38.47;19.17;;;0.50;99.90;;;;;;5072284;28;20555;-58
2022/12/12 02:55:16;;;;;;;45.27;19.83;;;0.50;99.90;;;;;;5072239;28;20514;-58
2022/12/12 02:57:44;;;;;;;38.27;18.07;;;0.40;99.90;;;;;;5072019;28;20473;-58
2022/12/12 03:00:13;;;;;;;39.47;18.80;;;0.50;99.90;;;;;;5072200;28;20447;-57
2022/12/12 03:08:41;;;;;;;40.03;18.40;;;0.70;99.90;;;;;;5064343;28;20427;-58
2022/12/12 03:11:11;;;;;;;38.47;19.00;;;0.60;99.90;;;;;;5051444;28;20447;-58
2022/12/12 03:13:45;;;;;;;38.07;18.00;;;0.50;99.90;;;;;;5051998;28;20480;-57
2022/12/12 03:16:21;;;;;;;39.70;20.47;;;0.60;99.90;;;;;;5051609;28;20468;-58
2022/12/12 03:18:57;;;;;;;31.43;16.90;;;0.70;99.90;;;;;;5052043;28;20507;-58
2022/12/12 03:21:31;;;;;;;34.53;18.10;;;0.70;99.90;;;;;;5051867;28;20454;-58
2022/12/12 03:24:03;;;;;;;36.07;17.80;;;0.80;99.90;;;;;;5052291;28;20506;-58
2022/12/12 03:26:35;;;;;;;38.70;19.20;;;0.80;99.90;;;;;;5051520;28;20986;-58
2022/12/12 03:29:08;;;;;;;38.73;19.50;;;0.90;99.90;;;;;;5051900;28;20954;-58
2022/12/12 03:31:38;;;;;;;36.87;17.40;;;0.80;99.90;;;;;;5051683;28;20448;-57
2022/12/12 03:34:12;;;;;;;34.97;17.53;;;0.70;99.90;;;;;;5051930;28;20483;-58
2022/12/12 03:36:44;;;;;;;36.77;19.43;;;0.70;99.90;;;;;;5052286;28;20519;-57
2022/12/12 03:39:15;;;;;;;34.17;17.40;;;0.80;99.90;;;;;;5066477;28;20452;-58
2022/12/12 03:41:47;;;;;;;37.80;18.73;;;0.80;99.90;;;;;;5051684;28;20448;-59
2022/12/12 03:44:19;;;;;;;35.77;17.30;;;0.70;99.90;;;;;;5051908;28;20444;-58
2022/12/12 03:46:51;;;;;;;37.70;18.40;;;0.70;99.90;;;;;;5051494;28;20537;-58
2022/12/12 03:49:24;;;;;;;38.00;19.63;;;0.80;99.90;;;;;;5051798;28;20459;-58
2022/12/12 03:51:57;;;;;;;36.90;17.53;;;0.80;99.90;;;;;;5051430;28;20539;-58
2022/12/12 03:54:28;;;;;;;41.30;18.57;;;0.80;99.90;;;;;;5051443;28;20483;-58
2022/12/12 03:56:59;;;;;;;41.40;18.40;;;0.80;99.90;;;;;;5051281;28;20506;-58
2022/12/12 03:59:32;;;;;;;35.73;18.37;;;0.90;99.90;;;;;;5051628;28;20456;-58
2022/12/12 04:02:03;;;;;;;38.17;18.00;;;0.90;99.90;;;;;;5051574;28;20504;-58
2022/12/12 04:04:36;;;;;;;35.90;18.30;;;1.00;99.90;;;;;;5051356;28;20969;-58
2022/12/12 04:07:08;;;;;;;41.33;18.70;;;1.00;99.90;;;;;;5055341;28;20463;-58
2022/12/12 04:15:30;;;;;;;36.37;16.53;;;1.00;99.90;;;;;;5071270;28;20422;-58
2022/12/12 04:18:10;;;;;;;34.00;17.73;;;1.00;99.90;;;;;;5071211;28;20478;-58
2022/12/12 04:23:33;;;;;;;35.03;18.47;;;1.10;99.90;;;;;;5074619;28;20484;-58
2022/12/12 04:29:01;;;;;;;38.80;17.50;;;1.10;99.90;;;;;;5074904;28;20422;-57
2022/12/12 04:31:30;;;;;;;36.23;17.13;;;1.10;99.90;;;;;;5075040;28;20709;-58
2022/12/12 04:34:02;;;;;;;35.87;18.60;;;1.10;99.90;;;;;;5074695;28;20494;-58
2022/12/12 04:36:32;;;;;;;32.53;17.80;;;0.90;99.90;;;;;;5074769;28;20467;-58
2022/12/12 04:39:00;;;;;;;35.00;15.77;;;0.70;99.90;;;;;;5066546;28;20443;-58
2022/12/12 04:41:32;;;;;;;42.17;19.47;;;0.80;99.90;;;;;;5074864;28;20459;-58
2022/12/12 04:44:01;;;;;;;30.33;16.77;;;0.80;99.90;;;;;;5074599;28;20447;-58
2022/12/12 04:46:32;;;;;;;36.70;18.43;;;0.80;99.90;;;;;;5074452;28;20550;-58
2022/12/12 04:49:01;;;;;;;32.00;16.47;;;0.90;99.90;;;;;;5074765;28;20473;-58
2022/12/12 04:51:33;;;;;;;36.63;18.17;;;0.90;99.90;;;;;;5074599;28;20458;-58
2022/12/12 04:54:04;;;;;;;34.50;17.53;;;0.90;99.90;;;;;;5074581;28;20489;-58
2022/12/12 04:56:35;;;;;;;36.43;18.20;;;0.90;99.90;;;;;;5074335;28;20467;-58
2022/12/12 04:59:03;;;;;;;32.17;16.27;;;0.90;99.90;;;;;;5074397;28;20508;-58
2022/12/12 05:01:38;;;;;;;33.43;16.63;;;0.90;99.90;;;;;;5074812;28;20455;-58
2022/12/12 05:04:12;;;;;;;33.90;16.43;;;0.90;99.90;;;;;;5074532;28;20442;-58
2022/12/12 05:06:45;;;;;;;31.80;17.50;;;0.80;99.90;;;;;;5073342;28;20477;-58
2022/12/12 05:09:12;;;;;;;34.20;16.70;;;0.90;99.90;;;;;;5062359;28;20440;-58
2022/12/12 05:11:39;;;;;;;36.30;17.80;;;0.90;99.90;;;;;;5054192;28;20803;-58
2022/12/12 05:14:09;;;;;;;34.03;17.97;;;1.00;99.90;;;;;;5054193;28;20860;-58
2022/12/12 05:16:41;;;;;;;36.50;18.20;;;1.00;99.90;;;;;;5053958;28;20474;-58
2022/12/12 05:19:07;;;;;;;37.30;17.67;;;0.90;99.90;;;;;;5054208;28;20459;-58
2022/12/12 05:21:34;;;;;;;34.10;17.30;;;0.90;99.90;;;;;;5053741;28;20452;-58
2022/12/12 05:24:02;;;;;;;34.23;18.40;;;0.90;99.90;;;;;;5053766;28;20523;-58
2022/12/12 05:26:31;;;;;;;38.70;17.53;;;0.90;99.90;;;;;;5053607;28;20555;-58
2022/12/12 05:28:57;;;;;;;37.13;17.83;;;1.00;99.90;;;;;;5053924;28;20502;-58
2022/12/12 05:31:24;;;;;;;32.57;17.13;;;1.00;99.90;;;;;;5054026;28;20448;-54
2022/12/12 05:33:51;;;;;;;37.13;17.90;;;0.90;99.90;;;;;;5053250;28;20476;-58
2022/12/12 05:36:18;;;;;;;39.27;18.33;;;0.90;99.90;;;;;;5053382;28;20464;-61
2022/12/12 05:38:45;;;;;;;38.30;17.30;;;0.90;99.90;;;;;;5063534;28;20522;-55
2022/12/12 05:41:14;;;;;;;34.17;17.13;;;0.80;99.90;;;;;;5073863;28;20455;-55
2022/12/12 05:43:40;;;;;;;39.93;19.03;;;0.80;99.90;;;;;;5073654;28;20549;-55
2022/12/12 05:46:07;;;;;;;30.73;16.63;;;0.80;99.90;;;;;;5073330;28;20471;-52
2022/12/12 05:48:34;;;;;;;36.50;17.33;;;0.80;99.90;;;;;;5073387;28;20455;-57
2022/12/12 05:51:01;;;;;;;34.03;17.77;;;0.90;99.90;;;;;;5073113;28;20450;-56
2022/12/12 05:53:29;;;;;;;36.37;18.77;;;0.90;99.90;;;;;;5073076;28;20501;-57
2022/12/12 05:55:55;;;;;;;34.57;17.87;;;0.90;99.90;;;;;;5062670;28;20925;-54
2022/12/12 05:58:23;;;;;;;37.10;18.77;;;0.80;99.90;;;;;;5064257;28;20439;-56
2022/12/12 06:00:51;;;;;;;37.90;18.07;;;0.80;99.90;;;;;;5061994;28;20444;-53
2022/12/12 06:03:18;;;;;;;34.43;17.67;;;0.80;99.90;;;;;;5052910;28;20452;-54
2022/12/12 06:05:45;;;;;;;35.23;16.90;;;0.80;99.90;;;;;;5060755;28;20504;-57
2022/12/12 06:08:12;;;;;;;34.93;16.67;;;0.80;99.90;;;;;;5061136;28;20447;-57
2022/12/12 06:10:38;;;;;;;33.07;16.57;;;0.70;99.90;;;;;;5069863;28;20451;-54
2022/12/12 06:13:05;;;;;;;38.27;18.13;;;0.70;99.90;;;;;;5072874;28;20530;-57
2022/12/12 06:15:33;;;;;;;35.57;18.00;;;0.70;99.90;;;;;;5072310;28;20493;-56
2022/12/12 06:18:00;;;;;;;34.67;17.97;;;0.70;99.90;;;;;;5072490;28;20478;-55
2022/12/12 06:20:29;;;;;;;36.10;17.27;;;0.80;99.90;;;;;;5072514;28;20452;-54
2022/12/12 06:22:56;;;;;;;37.47;17.60;;;0.80;99.90;;;;;;5072606;28;20463;-59
2022/12/12 06:25:22;;;;;;;32.67;17.20;;;0.80;99.90;;;;;;5065243;28;20446;-57
2022/12/12 06:27:49;;;;;;;30.70;17.03;;;0.80;99.90;;;;;;5060389;28;20546;-62
2022/12/12 06:30:16;;;;;;;34.20;18.20;;;0.80;99.90;;;;;;5052379;28;20463;-59
2022/12/12 06:32:44;;;;;;;38.07;18.47;;;0.80;99.90;;;;;;5051663;28;20506;-59
2022/12/12 06:35:11;;;;;;;38.10;18.17;;;0.80;99.90;;;;;;5052720;28;20491;-61
2022/12/12 06:37:39;;;;;;;37.03;17.90;;;0.70;99.90;;;;;;5051236;28;20470;-59
2022/12/12 06:40:06;;;;;;;34.03;18.20;;;0.80;99.90;;;;;;5059366;28;20791;-59
2022/12/12 06:42:33;;;;;;;34.00;18.07;;;0.70;99.90;;;;;;5067998;28;20450;-59
2022/12/12 06:45:00;;;;;;;37.60;18.40;;;0.70;99.90;;;;;;5062644;28;20493;-59
2022/12/12 06:47:26;;;;;;;33.70;17.60;;;0.60;99.90;;;;;;5070672;28;20979;-59
2022/12/12 06:49:54;;;;;;;37.97;18.57;;;0.50;99.90;;;;;;5071913;28;20445;-58
2022/12/12 06:52:21;;;;;;;34.90;17.60;;;0.50;99.90;;;;;;5071670;28;20515;-61
2022/12/12 06:54:48;;;;;;;32.07;16.37;;;0.50;99.90;;;;;;5061468;28;20483;-57
2022/12/12 06:57:15;;;;;;;33.53;16.30;;;0.60;99.90;;;;;;5062730;28;20463;-59
2022/12/12 06:59:42;;;;;;;32.80;17.30;;;0.80;99.90;;;;;;5062803;28;20448;-57
2022/12/12 07:02:10;;;;;;;34.23;17.13;;;1.10;99.90;;;;;;5058245;28;20982;-57
2022/12/12 07:04:37;;;;;;;33.93;18.40;;;1.20;99.90;;;;;;5051098;28;20452;-59
2022/12/12 07:07:05;;;;;;;35.73;17.37;;;1.40;99.90;;;;;;5055217;28;20463;-57
2022/12/12 07:09:32;;;;;;;36.13;17.60;;;1.50;99.90;;;;;;5063392;28;20447;-59
2022/12/12 07:11:58;;;;;;;31.80;17.07;;;1.40;99.90;;;;;;5066474;28;20479;-57
2022/12/12 07:14:25;;;;;;;34.47;17.50;;;1.40;99.90;;;;;;5059103;28;20488;-57
2022/12/12 07:16:52;;;;;;;35.53;18.33;;;1.40;99.90;;;;;;5069853;28;20463;-58
2022/12/12 07:19:18;;;;;;;33.00;17.57;;;1.30;99.90;;;;;;5071622;28;20478;-58
2022/12/12 07:21:45;;;;;;;34.27;18.13;;;1.10;99.90;;;;;;5070787;28;20466;-58
2022/12/12 07:24:14;;;;;;;32.63;15.87;;;1.00;99.90;;;;;;5071371;28;20447;-57
2022/12/12 07:26:41;;;;;;;36.80;18.67;;;0.80;99.90;;;;;;5070187;28;20471;-58
2022/12/12 07:29:07;;;;;;;34.53;16.43;;;0.70;99.90;;;;;;5071476;28;20512;-54
2022/12/12 07:31:34;;;;;;;33.73;16.97;;;0.50;99.90;;;;;;5071510;28;20798;-57
2022/12/12 07:34:01;;;;;;;30.40;17.50;;;0.40;99.90;;;;;;5070841;28;20869;-55
2022/12/12 07:36:27;;;;;;;36.53;18.77;;;0.30;99.90;;;;;;5071017;28;20476;-53
2022/12/12 07:38:54;;;;;;;32.70;18.13;;;0.20;99.90;;;;;;5061975;28;20439;-53
2022/12/12 07:41:22;;;;;;;32.73;16.93;;;0.10;99.90;;;;;;5070843;28;20459;-57
2022/12/12 07:43:51;;;;;;;37.90;17.87;;;0.00;99.90;;;;;;5070760;28;20510;-58
2022/12/12 07:46:19;;;;;;;31.93;17.43;;;-0.10;99.90;;;;;;5070546;28;21209;-58
2022/12/12 07:48:47;;;;;;;35.77;17.33;;;-0.10;99.90;;;;;;5070670;28;20465;-55
2022/12/12 07:51:14;;;;;;;35.37;18.57;;;-0.10;99.90;;;;;;5070885;28;20451;-57
2022/12/12 07:53:41;;;;;;;33.67;17.23;;;-0.20;99.90;;;;;;5070971;28;20462;-59
2022/12/12 07:56:10;;;;;;;34.50;17.93;;;-0.30;99.90;;;;;;5062348;28;21323;-57
2022/12/12 07:58:38;;;;;;;34.07;17.37;;;-0.40;99.90;;;;;;5065615;28;20455;-62
2022/12/12 08:01:10;;;;;;;32.40;17.77;;;-0.40;99.90;;;;;;5062252;28;20455;-58
2022/12/12 08:03:36;;;;;;;30.83;17.17;;;-0.40;99.90;;;;;;5063499;28;20499;-56
2022/12/12 08:06:05;;;;;;;36.80;17.83;;;-0.40;99.90;;;;;;5061544;28;20443;-54
2022/12/12 08:08:32;;;;;;;34.37;17.77;;;-0.40;99.90;;;;;;5062480;28;20530;-55
2022/12/12 08:10:58;;;;;;;37.07;18.37;;;-0.50;99.90;;;;;;5074774;28;20483;-56
2022/12/12 08:13:25;;;;;;;34.13;18.87;;;-0.50;99.90;;;;;;5074135;28;20444;-57
2022/12/12 08:15:53;;;;;;;35.63;17.30;;;-0.50;99.90;;;;;;5073926;28;21003;-54
2022/12/12 08:18:20;;;;;;;37.27;19.07;;;-0.50;99.90;;;;;;5073727;28;20463;-58
2022/12/12 08:20:46;;;;;;;35.93;18.07;;;-0.50;99.90;;;;;;5074420;28;20445;-57
2022/12/12 08:23:13;;;;;;;38.33;18.43;;;-0.50;99.90;;;;;;5074021;28;20498;-56
2022/12/12 08:25:40;;;;;;;37.87;18.30;;;-0.50;99.90;;;;;;5074280;28;20449;-56
2022/12/12 08:28:06;;;;;;;36.23;17.37;;;-0.40;99.90;;;;;;5073262;28;20522;-57
2022/12/12 08:30:33;;;;;;;37.57;18.63;;;-0.50;99.90;;;;;;5074210;28;20455;-57
2022/12/12 08:33:01;;;;;;;40.77;20.67;;;-0.50;99.90;;;;;;5070621;28;20451;-55
2022/12/12 08:35:29;;;;;;;35.23;18.97;;;-0.50;99.90;;;;;;5061787;28;20486;-55
2022/12/12 08:37:56;;;;;;;36.63;19.20;;;-0.50;99.90;;;;;;5061941;28;21165;-56
2022/12/12 08:40:23;;;;;;;41.47;19.23;;;-0.40;99.90;;;;;;5061965;28;20511;-57
2022/12/12 08:42:50;;;;;;;32.83;18.43;;;-0.40;99.90;;;;;;5054121;28;20510;-58
2022/12/12 08:45:17;;;;;;;37.87;19.63;;;-0.40;99.90;;;;;;5053847;28;20443;-58
2022/12/12 08:47:43;;;;;;;42.47;19.97;;;-0.40;99.90;;;;;;5053688;28;20476;-57
2022/12/12 08:50:12;;;;;;;36.60;18.17;;;-0.40;99.90;;;;;;5061963;28;20452;-57
2022/12/12 08:52:38;;;;;;;36.60;18.03;;;-0.30;99.90;;;;;;5062710;28;20453;-58
2022/12/12 08:55:05;;;;;;;36.07;18.00;;;-0.30;99.90;;;;;;5067452;28;20481;-57
2022/12/12 08:57:32;;;;;;;36.80;17.83;;;-0.20;99.90;;;;;;5061040;28;20472;-58
2022/12/12 08:59:59;;;;;;;35.63;18.87;;;-0.20;99.90;;;;;;5053792;28;20455;-56
2022/12/12 09:02:25;;;;;;;40.93;20.37;;;-0.20;99.90;;;;;;5053447;28;20461;-57
2022/12/12 09:04:52;;;;;;;42.63;20.73;;;-0.20;99.90;;;;;;5054591;28;20444;-61
2022/12/12 09:07:20;;;;;;;42.87;19.87;;;0.10;99.90;;;;;;5059933;28;20475;-61
2022/12/12 09:09:47;;;;;;;48.17;25.13;;;0.50;99.90;;;;;;5061871;28;20548;-56
2022/12/12 09:12:14;;;;;;;42.30;21.27;;;0.60;99.90;;;;;;5053631;28;20446;-60
2022/12/12 09:14:41;;;;;;;46.93;21.87;;;0.50;99.90;;;;;;5052907;28;20481;-58
2022/12/12 09:17:08;;;;;;;49.27;22.17;;;0.50;99.90;;;;;;5052681;28;20470;-58
2022/12/12 09:19:34;;;;;;;54.03;23.53;;;0.50;99.90;;;;;;5053035;28;20461;-58
2022/12/12 09:22:02;;;;;;;46.57;23.50;;;0.50;99.90;;;;;;5053191;28;20972;-57
2022/12/12 09:24:30;;;;;;;46.30;22.17;;;0.50;99.90;;;;;;5052873;28;20455;-56
2022/12/12 09:26:57;;;;;;;42.13;21.13;;;0.50;99.90;;;;;;5052977;28;20464;-54
2022/12/12 09:29:24;;;;;;;48.53;23.60;;;0.60;99.90;;;;;;5055837;28;21230;-59
2022/12/12 09:31:50;;;;;;;40.27;20.57;;;0.50;99.90;;;;;;5063433;28;20943;-56
2022/12/12 09:34:17;;;;;;;42.57;22.23;;;0.60;99.90;;;;;;5073477;28;20458;-58
2022/12/12 09:36:43;;;;;;;47.03;23.30;;;0.70;99.90;;;;;;5072184;28;20467;-53
2022/12/12 09:39:10;;;;;;;44.83;22.43;;;0.70;99.90;;;;;;5067753;28;20470;-58
2022/12/12 09:41:38;;;;;;;42.97;21.00;;;0.80;99.90;;;;;;5052404;28;20450;-57
2022/12/12 09:44:08;;;;;;;43.87;21.57;;;0.80;99.90;;;;;;5052953;28;20968;-58
2022/12/12 09:46:39;;;;;;;44.90;21.90;;;0.80;99.90;;;;;;5052060;28;20474;-59
2022/12/12 09:49:15;;;;;;;39.97;21.40;;;0.80;99.90;;;;;;5052481;28;20444;-58
2022/12/12 09:51:43;;;;;;;43.00;20.83;;;0.70;99.90;;;;;;5052946;28;20454;-58
2022/12/12 09:54:14;;;;;;;41.93;21.40;;;0.60;99.90;;;;;;5052311;28;20513;-58
2022/12/12 09:56:52;;;;;;;41.00;21.00;;;0.70;99.90;;;;;;5061465;28;20491;-58
2022/12/12 09:59:23;;;;;;;38.67;19.97;;;0.60;99.90;;;;;;5063635;28;20710;-59
2022/12/12 10:01:59;;;;;;;38.13;20.53;;;0.60;99.90;;;;;;5053783;28;20497;-56
2022/12/12 10:04:36;;;;;;;37.07;20.03;;;0.60;99.90;;;;;;5052271;28;20459;-57
2022/12/12 10:07:11;;;;;;;39.93;20.60;;;0.40;99.90;;;;;;5056368;28;20817;-57
2022/12/12 10:09:56;;;;;;;37.50;20.00;;;0.50;99.90;;;;;;5062959;28;21000;-56
2022/12/12 10:12:25;;;;;;;41.30;21.00;;;0.60;99.90;;;;;;5052519;28;20478;-58
2022/12/12 10:14:54;;;;;;;41.37;20.23;;;0.70;99.90;;;;;;5051975;28;20490;-58
2022/12/12 10:17:26;;;;;;;42.70;21.70;;;0.90;99.90;;;;;;5051889;28;20906;-60
2022/12/12 10:19:55;;;;;;;41.47;20.93;;;0.90;99.90;;;;;;5051685;28;20459;-57
2022/12/12 10:22:30;;;;;;;38.57;20.20;;;1.00;99.90;;;;;;5052185;28;20459;-58
2022/12/12 10:25:04;;;;;;;37.43;20.57;;;1.10;99.90;;;;;;5052923;28;20508;-57
2022/12/12 10:27:32;;;;;;;39.00;20.97;;;1.20;99.90;;;;;;5051144;28;21238;-57
2022/12/12 10:30:07;;;;;;;35.70;18.47;;;1.20;99.90;;;;;;5052002;28;20447;-58
2022/12/12 10:32:46;;;;;;;37.60;18.97;;;1.20;99.90;;;;;;5051444;28;20509;-56
2022/12/12 10:35:21;;;;;;;40.23;18.77;;;1.10;99.90;;;;;;5052056;28;20483;-59
2022/12/12 10:37:57;;;;;;;33.40;17.57;;;1.00;99.90;;;;;;5058163;28;20472;-59
2022/12/12 10:40:36;;;;;;;35.90;16.70;;;1.20;99.90;;;;;;5059864;28;20443;-58
2022/12/12 10:43:09;;;;;;;34.43;18.57;;;1.20;99.90;;;;;;5051688;28;20455;-58
2022/12/12 10:45:51;;;;;;;38.10;18.63;;;1.10;99.90;;;;;;5051635;28;20785;-57
2022/12/12 10:48:17;;;;;;;31.70;18.03;;;1.00;99.90;;;;;;5051131;28;20462;-57
2022/12/12 10:50:48;;;;;;;33.33;18.70;;;1.10;99.90;;;;;;5051698;28;20860;-61
2022/12/12 10:53:15;;;;;;;33.30;18.17;;;1.10;99.90;;;;;;5051652;28;20428;-59
2022/12/12 10:55:48;;;;;;;32.83;18.43;;;1.10;99.90;;;;;;5058344;28;20537;-58
2022/12/12 10:58:17;;;;;;;33.10;17.87;;;1.00;99.90;;;;;;5057418;28;20444;-59
2022/12/12 11:00:46;;;;;;;32.20;17.93;;;1.10;99.90;;;;;;5050861;28;20950;-59
2022/12/12 11:03:26;;;;;;;31.90;17.43;;;1.10;99.90;;;;;;5051682;28;20949;-59
2022/12/12 11:05:55;;;;;;;36.30;19.53;;;1.10;99.90;;;;;;5051004;28;20448;-59
2022/12/12 11:08:27;;;;;;;33.50;17.93;;;1.20;99.90;;;;;;5059791;28;20452;-59
2022/12/12 11:11:06;;;;;;;35.90;18.63;;;1.30;99.90;;;;;;5067519;28;20455;-64
2022/12/12 11:13:43;;;;;;;31.07;17.67;;;1.30;99.00;;;;;;5059463;28;20521;-59
2022/12/12 11:16:16;;;;;;;32.37;17.73;;;1.30;97.90;;;;;;5050241;28;20494;-59
2022/12/12 11:18:58;;;;;;;42.60;19.57;;;1.30;99.90;;;;;;5051131;28;20871;-59
2022/12/12 11:21:25;;;;;;;37.83;18.37;;;1.20;95.00;;;;;;5051023;28;20456;-59
2022/12/12 11:23:55;;;;;;;36.87;19.20;;;1.30;97.20;;;;;;5051142;28;20498;-60
2022/12/12 11:26:23;;;;;;;35.53;18.70;;;1.30;99.90;;;;;;5050932;28;20522;-60
2022/12/12 11:28:56;;;;;;;32.53;17.10;;;1.40;99.90;;;;;;5050386;28;20448;-60
2022/12/12 11:31:27;;;;;;;34.87;18.07;;;1.40;98.00;;;;;;5050665;28;20459;-59
2022/12/12 11:33:57;;;;;;;34.73;18.50;;;1.50;98.00;;;;;;5050669;28;20448;-61
2022/12/12 11:36:31;;;;;;;31.53;17.83;;;1.50;95.50;;;;;;5050812;28;20487;-60
2022/12/12 11:38:59;;;;;;;31.27;17.23;;;1.60;88.80;;;;;;5061573;28;20508;-60
2022/12/12 11:41:26;;;;;;;31.30;16.03;;;1.60;68.80;;;;;;5070987;28;21131;-61
2022/12/12 11:43:59;;;;;;;27.00;16.17;;;1.60;43.60;;;;;;5066677;28;20901;-61
2022/12/12 11:46:27;;;;;;;33.80;15.20;;;1.60;39.40;;;;;;5058384;28;20460;-61
2022/12/12 11:49:03;;;;;;;32.10;15.73;;;1.60;43.70;;;;;;5050459;28;20479;-61
2022/12/12 11:51:32;;;;;;;29.17;15.57;;;1.60;39.70;;;;;;5050286;28;20451;-61
2022/12/12 11:54:00;;;;;;;30.63;15.97;;;1.60;39.70;;;;;;5050889;28;20459;-59
2022/12/12 11:56:36;;;;;;;28.13;16.23;;;1.70;40.50;;;;;;5050195;28;20550;-59
2022/12/12 11:59:22;;;;;;;29.37;17.13;;;1.80;45.60;;;;;;5052455;28;20844;-61
2022/12/12 12:01:58;;;;;;;27.80;15.13;;;1.90;40.80;;;;;;5058313;28;20444;-61
2022/12/12 12:04:45;;;;;;;28.43;15.40;;;1.90;19.50;;;;;;5050785;28;20458;-63
2022/12/12 12:07:30;;;;;;;30.27;14.57;;;2.00;8.20;;;;;;5055254;28;20467;-61
2022/12/12 12:10:03;;;;;;;28.73;14.70;;;2.00;12.60;;;;;;5062054;28;20448;-58
2022/12/12 12:12:45;;;;;;;26.20;14.23;;;2.10;1.00;;;;;;5070659;28;20454;-61
2022/12/12 12:15:31;;;;;;;24.37;13.77;;;2.10;1.00;;;;;;5060132;28;20440;-60
2022/12/12 12:18:18;;;;;;;27.93;14.17;;;2.00;1.00;;;;;;5061205;28;20463;-60
2022/12/12 12:21:15;;;;;;;25.63;13.53;;;2.10;1.00;;;;;;5070402;28;20450;-59
2022/12/12 12:23:48;;;;;;;24.70;12.87;;;2.10;1.00;;;;;;5065004;28;20463;-61
2022/12/12 12:26:20;;;;;;;24.17;12.07;;;2.00;1.00;;;;;;5070563;28;20467;-60
2022/12/12 12:29:10;;;;;;;25.00;13.63;;;2.20;1.00;;;;;;5069826;28;20454;-61
2022/12/12 12:31:45;;;;;;;22.97;11.90;;;2.30;1.00;;;;;;5070622;28;20617;-60
2022/12/12 12:34:21;;;;;;;23.07;12.27;;;2.30;1.00;;;;;;5069856;28;20446;-60
2022/12/12 12:37:04;;;;;;;21.90;11.80;;;2.30;1.00;;;;;;5067651;28;20926;-61
2022/12/12 12:39:51;;;;;;;20.27;11.93;;;2.10;1.00;;;;;;5057990;28;20798;-60
2022/12/12 12:42:32;;;;;;;23.27;12.13;;;2.20;1.00;;;;;;5050673;28;20539;-60
2022/12/12 12:45:06;;;;;;;19.70;11.77;;;2.10;1.00;;;;;;5053668;28;21010;-61
2022/12/12 12:47:46;;;;;;;19.20;11.07;;;2.00;1.00;;;;;;5053183;28;20467;-60
2022/12/12 12:50:17;;;;;;;21.70;10.60;;;1.90;1.00;;;;;;5062362;28;20453;-59
2022/12/12 12:52:51;;;;;;;20.30;11.07;;;1.90;1.00;;;;;;5071144;28;20873;-59
2022/12/12 12:55:23;;;;;;;20.43;10.80;;;1.80;1.00;;;;;;5074127;28;21256;-60
2022/12/12 12:57:51;;;;;;;18.13;8.83;;;1.80;1.00;;;;;;5072785;28;21195;-59
2022/12/12 13:00:20;;;;;;;17.80;9.03;;;1.90;1.00;;;;;;5073474;28;20458;-62
2022/12/12 13:02:55;;;;;;;18.87;9.33;;;2.00;1.00;;;;;;5073560;28;20454;-60
2022/12/12 13:05:30;;;;;;;14.87;9.40;;;2.00;1.00;;;;;;5073767;28;20446;-60
2022/12/12 13:08:04;;;;;;;18.30;9.63;;;2.00;1.00;;;;;;5064284;28;20469;-58
2022/12/12 13:10:32;;;;;;;16.77;9.83;;;2.10;1.00;;;;;;5057540;28;20859;-60